sensor_id;sensor_type;location;lat;lon;timestamp;pressure;altitude;pressure_sealevel;temperature;humidity
56604;BME280;42486;47.478;19.036;2023-04-06T00:03:03;100408.69;;;0.43;69.10
56604;BME280;42486;47.478;19.036;2023-04-06T00:06:08;100407.19;;;0.36;68.73
56604;BME280;42486;47.478;19.036;2023-04-06T00:09:12;100403.91;;;0.31;69.02
56604;BME280;42486;47.478;19.036;2023-04-06T00:12:15;100405.00;;;0.24;68.85
56604;BME280;42486;47.478;19.036;2023-04-06T00:15:19;100406.66;;;0.27;70.59
56604;BME280;42486;47.478;19.036;2023-04-06T00:18:23;100403.88;;;0.33;72.57
56604;BME280;42486;47.478;19.036;2023-04-06T00:21:26;100393.53;;;0.34;72.16
56604;BME280;42486;47.478;19.036;2023-04-06T00:24:29;100393.84;;;0.25;72.12
56604;BME280;42486;47.478;19.036;2023-04-06T00:27:32;100388.81;;;0.20;73.95
56604;BME280;42486;47.478;19.036;2023-04-06T00:30:36;100387.28;;;0.15;74.72
56604;BME280;42486;47.478;19.036;2023-04-06T00:33:39;100388.97;;;0.16;73.74
56604;BME280;42486;47.478;19.036;2023-04-06T00:36:44;100385.00;;;0.06;73.61
56604;BME280;42486;47.478;19.036;2023-04-06T00:39:48;100388.63;;;-0.02;74.79
56604;BME280;42486;47.478;19.036;2023-04-06T00:42:51;100374.28;;;-0.09;75.12
56604;BME280;42486;47.478;19.036;2023-04-06T00:45:54;100371.50;;;-0.01;74.91
56604;BME280;42486;47.478;19.036;2023-04-06T00:48:58;100375.78;;;-0.02;74.12
56604;BME280;42486;47.478;19.036;2023-04-06T00:52:04;100375.19;;;-0.10;73.47
56604;BME280;42486;47.478;19.036;2023-04-06T00:55:07;100375.38;;;-0.16;73.20
56604;BME280;42486;47.478;19.036;2023-04-06T00:58:11;100373.88;;;-0.25;73.80
56604;BME280;42486;47.478;19.036;2023-04-06T01:01:14;100367.13;;;-0.27;74.39
56604;BME280;42486;47.478;19.036;2023-04-06T01:04:17;100367.94;;;-0.27;76.39
56604;BME280;42486;47.478;19.036;2023-04-06T01:07:21;100369.03;;;-0.34;74.70
56604;BME280;42486;47.478;19.036;2023-04-06T01:10:24;100370.16;;;-0.44;74.00
56604;BME280;42486;47.478;19.036;2023-04-06T01:13:28;100378.78;;;-0.47;76.28
56604;BME280;42486;47.478;19.036;2023-04-06T01:16:32;100373.47;;;-0.40;76.25
56604;BME280;42486;47.478;19.036;2023-04-06T01:19:36;100376.97;;;-0.43;76.21
56604;BME280;42486;47.478;19.036;2023-04-06T01:22:39;100381.34;;;-0.47;77.62
56604;BME280;42486;47.478;19.036;2023-04-06T01:25:42;100380.31;;;-0.39;76.87
56604;BME280;42486;47.478;19.036;2023-04-06T01:28:45;100376.94;;;-0.41;76.07
56604;BME280;42486;47.478;19.036;2023-04-06T01:31:49;100374.47;;;-0.45;77.42
56604;BME280;42486;47.478;19.036;2023-04-06T01:34:53;100372.75;;;-0.46;76.68
56604;BME280;42486;47.478;19.036;2023-04-06T01:37:57;100373.69;;;-0.48;77.21
56604;BME280;42486;47.478;19.036;2023-04-06T01:41:00;100370.28;;;-0.49;78.11
56604;BME280;42486;47.478;19.036;2023-04-06T01:44:03;100373.16;;;-0.59;75.24
56604;BME280;42486;47.478;19.036;2023-04-06T01:47:07;100370.13;;;-0.74;74.70
56604;BME280;42486;47.478;19.036;2023-04-06T01:50:10;100369.28;;;-0.74;78.07
56604;BME280;42486;47.478;19.036;2023-04-06T01:53:13;100369.31;;;-0.76;76.22
56604;BME280;42486;47.478;19.036;2023-04-06T01:56:16;100363.56;;;-0.84;75.23
56604;BME280;42486;47.478;19.036;2023-04-06T01:59:20;100362.84;;;-0.89;75.83
56604;BME280;42486;47.478;19.036;2023-04-06T02:02:23;100357.81;;;-0.94;75.92
56604;BME280;42486;47.478;19.036;2023-04-06T02:05:28;100362.00;;;-0.90;78.98
56604;BME280;42486;47.478;19.036;2023-04-06T02:08:33;100353.47;;;-0.90;nan
56604;BME280;42486;47.478;19.036;2023-04-06T02:11:37;100350.22;;;-0.97;78.99
56604;BME280;42486;47.478;19.036;2023-04-06T02:14:41;100350.47;;;-1.06;78.15
56604;BME280;42486;47.478;19.036;2023-04-06T02:17:44;100356.34;;;-1.02;77.78
56604;BME280;42486;47.478;19.036;2023-04-06T02:20:47;100342.69;;;-1.03;77.90
56604;BME280;42486;47.478;19.036;2023-04-06T02:23:50;100339.22;;;-1.02;80.57
56604;BME280;42486;47.478;19.036;2023-04-06T02:26:53;100338.75;;;-1.16;79.61
56604;BME280;42486;47.478;19.036;2023-04-06T02:29:56;100336.38;;;-1.24;79.82
56604;BME280;42486;47.478;19.036;2023-04-06T02:33:00;100333.03;;;-1.26;81.21
56604;BME280;42486;47.478;19.036;2023-04-06T02:36:04;100335.69;;;-1.30;79.63
56604;BME280;42486;47.478;19.036;2023-04-06T02:39:08;100326.41;;;-1.35;78.95
56604;BME280;42486;47.478;19.036;2023-04-06T02:42:13;100323.09;;;-1.38;78.17
56604;BME280;42486;47.478;19.036;2023-04-06T02:45:18;100329.97;;;-1.40;78.10
56604;BME280;42486;47.478;19.036;2023-04-06T02:48:23;100336.00;;;-1.43;77.35
56604;BME280;42486;47.478;19.036;2023-04-06T02:51:30;100324.97;;;-1.46;79.18
56604;BME280;42486;47.478;19.036;2023-04-06T02:54:33;100336.19;;;-1.50;78.37
56604;BME280;42486;47.478;19.036;2023-04-06T02:57:37;100317.38;;;-1.49;78.23
56604;BME280;42486;47.478;19.036;2023-04-06T03:00:42;100329.25;;;-1.45;79.05
56604;BME280;42486;47.478;19.036;2023-04-06T03:03:46;100325.84;;;-1.46;79.30
56604;BME280;42486;47.478;19.036;2023-04-06T03:06:49;100319.75;;;-1.42;82.59
56604;BME280;42486;47.478;19.036;2023-04-06T03:09:52;100322.28;;;-1.40;81.48
56604;BME280;42486;47.478;19.036;2023-04-06T03:12:56;100318.91;;;-1.42;80.03
56604;BME280;42486;47.478;19.036;2023-04-06T03:15:59;100321.44;;;-1.41;80.94
56604;BME280;42486;47.478;19.036;2023-04-06T03:19:03;100320.72;;;-1.46;79.23
56604;BME280;42486;47.478;19.036;2023-04-06T03:22:07;100318.34;;;-1.53;79.59
56604;BME280;42486;47.478;19.036;2023-04-06T03:25:10;100326.88;;;-1.53;81.58
56604;BME280;42486;47.478;19.036;2023-04-06T03:28:18;100320.06;;;-1.54;80.64
56604;BME280;42486;47.478;19.036;2023-04-06T03:31:21;100316.69;;;-1.56;81.35
56604;BME280;42486;47.478;19.036;2023-04-06T03:34:26;100329.44;;;-1.55;80.25
56604;BME280;42486;47.478;19.036;2023-04-06T03:37:29;100322.81;;;-1.62;79.72
56604;BME280;42486;47.478;19.036;2023-04-06T03:40:33;100333.06;;;-1.62;79.08
56604;BME280;42486;47.478;19.036;2023-04-06T03:43:37;100334.56;;;-1.53;79.99
56604;BME280;42486;47.478;19.036;2023-04-06T03:46:40;100334.56;;;-1.55;80.34
56604;BME280;42486;47.478;19.036;2023-04-06T03:49:45;100329.41;;;-1.51;82.52
56604;BME280;42486;47.478;19.036;2023-04-06T03:52:50;100325.19;;;-1.54;80.70
56604;BME280;42486;47.478;19.036;2023-04-06T03:55:54;100332.00;;;-1.53;82.07
56604;BME280;42486;47.478;19.036;2023-04-06T03:58:57;100326.88;;;-1.55;81.68
56604;BME280;42486;47.478;19.036;2023-04-06T04:02:00;100323.38;;;-1.50;81.40
56604;BME280;42486;47.478;19.036;2023-04-06T04:05:03;100319.06;;;-1.48;81.79
56604;BME280;42486;47.478;19.036;2023-04-06T04:08:06;100324.28;;;-1.51;81.61
56604;BME280;42486;47.478;19.036;2023-04-06T04:11:09;100316.34;;;-1.42;81.60
56604;BME280;42486;47.478;19.036;2023-04-06T04:14:14;100323.31;;;-1.47;80.16
56604;BME280;42486;47.478;19.036;2023-04-06T04:17:18;100322.41;;;-1.46;80.48
56604;BME280;42486;47.478;19.036;2023-04-06T04:20:21;100314.59;;;-1.40;83.35
56604;BME280;42486;47.478;19.036;2023-04-06T04:23:25;100307.75;;;-1.40;81.86
56604;BME280;42486;47.478;19.036;2023-04-06T04:26:28;100319.56;;;-1.34;81.37
56604;BME280;42486;47.478;19.036;2023-04-06T04:29:30;100310.94;;;-1.30;79.09
56604;BME280;42486;47.478;19.036;2023-04-06T04:32:35;100310.84;;;-1.27;78.20
56604;BME280;42486;47.478;19.036;2023-04-06T04:35:39;100309.88;;;-1.23;76.50
56604;BME280;42486;47.478;19.036;2023-04-06T04:38:42;100314.81;;;-1.15;76.79
56604;BME280;42486;47.478;19.036;2023-04-06T04:41:46;100306.00;;;-1.05;75.00
56604;BME280;42486;47.478;19.036;2023-04-06T04:44:50;100306.97;;;-1.09;74.94
56604;BME280;42486;47.478;19.036;2023-04-06T04:47:56;100295.06;;;-1.12;74.42
56604;BME280;42486;47.478;19.036;2023-04-06T04:51:00;100294.09;;;-1.07;75.12
56604;BME280;42486;47.478;19.036;2023-04-06T04:54:03;100294.41;;;-0.87;76.36
56604;BME280;42486;47.478;19.036;2023-04-06T04:57:07;100293.06;;;-0.69;73.29
56604;BME280;42486;47.478;19.036;2023-04-06T05:00:10;100295.25;;;-0.57;73.86
56604;BME280;42486;47.478;19.036;2023-04-06T05:03:14;100300.66;;;-0.36;72.39
56604;BME280;42486;47.478;19.036;2023-04-06T05:06:21;100306.59;;;-0.34;70.21
56604;BME280;42486;47.478;19.036;2023-04-06T05:09:26;100296.47;;;-0.11;70.49
56604;BME280;42486;47.478;19.036;2023-04-06T05:12:34;100297.19;;;0.21;70.85
56604;BME280;42486;47.478;19.036;2023-04-06T05:15:38;100300.88;;;0.40;70.10
56604;BME280;42486;47.478;19.036;2023-04-06T05:18:45;100288.94;;;0.64;70.31
56604;BME280;42486;47.478;19.036;2023-04-06T05:21:50;100284.59;;;0.67;66.12
56604;BME280;42486;47.478;19.036;2023-04-06T05:24:54;100282.00;;;0.92;68.15
56604;BME280;42486;47.478;19.036;2023-04-06T05:27:59;100275.38;;;1.09;65.94
56604;BME280;42486;47.478;19.036;2023-04-06T05:31:04;100269.84;;;1.20;63.92
56604;BME280;42486;47.478;19.036;2023-04-06T05:34:09;100273.12;;;1.24;62.58
56604;BME280;42486;47.478;19.036;2023-04-06T05:37:13;100279.09;;;1.24;63.47
56604;BME280;42486;47.478;19.036;2023-04-06T05:40:19;100277.31;;;1.50;61.37
56604;BME280;42486;47.478;19.036;2023-04-06T05:43:24;100263.63;;;1.93;62.93
56604;BME280;42486;47.478;19.036;2023-04-06T05:46:29;100264.28;;;2.41;62.57
56604;BME280;42486;47.478;19.036;2023-04-06T05:49:33;100266.59;;;2.88;60.39
56604;BME280;42486;47.478;19.036;2023-04-06T05:52:40;100263.94;;;3.29;56.81
56604;BME280;42486;47.478;19.036;2023-04-06T05:55:56;100260.63;;;3.82;55.49
56604;BME280;42486;47.478;19.036;2023-04-06T05:59:09;100262.69;;;4.47;50.64
56604;BME280;42486;47.478;19.036;2023-04-06T06:02:20;100269.97;;;5.24;50.00
56604;BME280;42486;47.478;19.036;2023-04-06T06:05:36;100267.06;;;6.09;47.55
56604;BME280;42486;47.478;19.036;2023-04-06T06:08:46;100263.38;;;6.44;45.43
56604;BME280;42486;47.478;19.036;2023-04-06T06:12:21;100258.50;;;6.23;45.06
56604;BME280;42486;47.478;19.036;2023-04-06T06:15:37;100261.06;;;5.77;44.30
56604;BME280;42486;47.478;19.036;2023-04-06T06:18:41;100251.25;;;5.82;45.59
56604;BME280;42486;47.478;19.036;2023-04-06T06:21:44;100250.94;;;5.07;45.40
56604;BME280;42486;47.478;19.036;2023-04-06T06:24:47;100242.47;;;6.01;46.72
56604;BME280;42486;47.478;19.036;2023-04-06T06:27:50;100249.59;;;6.57;45.70
56604;BME280;42486;47.478;19.036;2023-04-06T06:30:52;100246.56;;;6.65;43.50
56604;BME280;42486;47.478;19.036;2023-04-06T06:33:56;100246.28;;;7.13;43.55
56604;BME280;42486;47.478;19.036;2023-04-06T06:36:59;100236.72;;;6.99;42.46
56604;BME280;42486;47.478;19.036;2023-04-06T06:40:03;100237.34;;;7.45;40.62
56604;BME280;42486;47.478;19.036;2023-04-06T06:43:06;100237.41;;;8.12;39.41
56604;BME280;42486;47.478;19.036;2023-04-06T06:46:11;100233.69;;;7.89;37.22
56604;BME280;42486;47.478;19.036;2023-04-06T06:49:13;100234.78;;;8.40;37.22
56604;BME280;42486;47.478;19.036;2023-04-06T06:52:16;100233.09;;;6.73;37.94
56604;BME280;42486;47.478;19.036;2023-04-06T06:55:19;100228.59;;;5.86;39.53
56604;BME280;42486;47.478;19.036;2023-04-06T06:58:25;100218.47;;;6.72;38.46
56604;BME280;42486;47.478;19.036;2023-04-06T07:01:32;100222.72;;;7.01;38.54
56604;BME280;42486;47.478;19.036;2023-04-06T07:04:38;100235.06;;;8.22;37.27
56604;BME280;42486;47.478;19.036;2023-04-06T07:07:42;100236.09;;;7.10;36.95
56604;BME280;42486;47.478;19.036;2023-04-06T07:10:45;100235.94;;;8.08;36.97
56604;BME280;42486;47.478;19.036;2023-04-06T07:13:50;100236.19;;;7.64;37.20
56604;BME280;42486;47.478;19.036;2023-04-06T07:16:53;100239.41;;;7.40;36.74
56604;BME280;42486;47.478;19.036;2023-04-06T07:19:58;100242.28;;;7.07;36.85
56604;BME280;42486;47.478;19.036;2023-04-06T07:23:02;100234.88;;;5.98;39.19
56604;BME280;42486;47.478;19.036;2023-04-06T07:26:17;100237.88;;;6.36;39.21
56604;BME280;42486;47.478;19.036;2023-04-06T07:29:22;100238.31;;;6.87;37.93
56604;BME280;42486;47.478;19.036;2023-04-06T07:32:27;100236.75;;;6.70;38.07
56604;BME280;42486;47.478;19.036;2023-04-06T07:35:31;100229.97;;;7.66;37.85
56604;BME280;42486;47.478;19.036;2023-04-06T07:38:36;100225.50;;;7.96;35.49
56604;BME280;42486;47.478;19.036;2023-04-06T07:41:39;100219.53;;;7.39;37.51
56604;BME280;42486;47.478;19.036;2023-04-06T07:44:42;100224.41;;;6.74;38.20
56604;BME280;42486;47.478;19.036;2023-04-06T07:47:45;100218.81;;;6.07;39.97
56604;BME280;42486;47.478;19.036;2023-04-06T07:50:49;100217.84;;;5.62;39.90
56604;BME280;42486;47.478;19.036;2023-04-06T07:53:52;100214.44;;;6.07;40.58
56604;BME280;42486;47.478;19.036;2023-04-06T07:56:55;100210.09;;;6.08;41.38
56604;BME280;42486;47.478;19.036;2023-04-06T07:59:58;100214.63;;;5.88;40.10
56604;BME280;42486;47.478;19.036;2023-04-06T08:03:01;100215.09;;;6.41;42.36
56604;BME280;42486;47.478;19.036;2023-04-06T08:06:05;100223.22;;;5.89;39.60
56604;BME280;42486;47.478;19.036;2023-04-06T08:09:08;100214.69;;;6.03;39.92
56604;BME280;42486;47.478;19.036;2023-04-06T08:12:11;100211.84;;;5.91;40.62
56604;BME280;42486;47.478;19.036;2023-04-06T08:15:14;100219.91;;;5.55;40.91
56604;BME280;42486;47.478;19.036;2023-04-06T08:18:17;100212.72;;;5.60;41.74
56604;BME280;42486;47.478;19.036;2023-04-06T08:21:20;100213.69;;;6.05;41.16
56604;BME280;42486;47.478;19.036;2023-04-06T08:24:24;100217.47;;;6.00;41.49
56604;BME280;42486;47.478;19.036;2023-04-06T08:27:28;100214.28;;;5.79;40.82
56604;BME280;42486;47.478;19.036;2023-04-06T08:30:33;100206.09;;;6.02;40.94
56604;BME280;42486;47.478;19.036;2023-04-06T08:33:37;100210.44;;;6.02;41.04
56604;BME280;42486;47.478;19.036;2023-04-06T08:36:41;100210.03;;;6.24;41.73
56604;BME280;42486;47.478;19.036;2023-04-06T08:39:45;100211.50;;;6.13;41.49
56604;BME280;42486;47.478;19.036;2023-04-06T08:42:55;100200.50;;;6.24;41.48
56604;BME280;42486;47.478;19.036;2023-04-06T08:45:58;100195.16;;;6.42;40.75
56604;BME280;42486;47.478;19.036;2023-04-06T08:49:02;100193.31;;;5.83;41.62
56604;BME280;42486;47.478;19.036;2023-04-06T08:52:06;100190.56;;;6.16;41.09
56604;BME280;42486;47.478;19.036;2023-04-06T08:55:12;100191.69;;;6.27;39.58
56604;BME280;42486;47.478;19.036;2023-04-06T08:58:15;100192.47;;;6.43;41.07
56604;BME280;42486;47.478;19.036;2023-04-06T09:01:41;100183.69;;;5.85;41.03
56604;BME280;42486;47.478;19.036;2023-04-06T09:04:46;100189.53;;;6.05;41.30
56604;BME280;42486;47.478;19.036;2023-04-06T09:07:50;100181.94;;;6.60;40.12
56604;BME280;42486;47.478;19.036;2023-04-06T09:10:54;100175.63;;;6.79;39.80
56604;BME280;42486;47.478;19.036;2023-04-06T09:13:57;100178.75;;;6.98;39.90
56604;BME280;42486;47.478;19.036;2023-04-06T09:17:00;100186.22;;;6.76;37.98
56604;BME280;42486;47.478;19.036;2023-04-06T09:20:03;100180.16;;;6.61;39.55
56604;BME280;42486;47.478;19.036;2023-04-06T09:23:16;100173.81;;;7.22;38.87
56604;BME280;42486;47.478;19.036;2023-04-06T09:26:21;100166.16;;;6.92;38.08
56604;BME280;42486;47.478;19.036;2023-04-06T09:29:24;100174.56;;;7.24;37.22
56604;BME280;42486;47.478;19.036;2023-04-06T09:32:30;100159.78;;;7.25;38.62
56604;BME280;42486;47.478;19.036;2023-04-06T09:35:33;100175.09;;;7.30;37.46
56604;BME280;42486;47.478;19.036;2023-04-06T09:38:37;100166.31;;;6.46;38.12
56604;BME280;42486;47.478;19.036;2023-04-06T09:41:41;100157.53;;;6.92;37.94
56604;BME280;42486;47.478;19.036;2023-04-06T09:44:46;100153.13;;;7.21;37.27
56604;BME280;42486;47.478;19.036;2023-04-06T09:47:48;100144.75;;;7.30;40.61
56604;BME280;42486;47.478;19.036;2023-04-06T09:50:55;100145.19;;;7.64;36.79
56604;BME280;42486;47.478;19.036;2023-04-06T09:54:01;100139.13;;;7.23;36.59
56604;BME280;42486;47.478;19.036;2023-04-06T09:57:25;100141.56;;;7.39;37.08
56604;BME280;42486;47.478;19.036;2023-04-06T10:00:32;100148.69;;;7.50;36.85
56604;BME280;42486;47.478;19.036;2023-04-06T10:06:44;100137.28;;;7.92;35.90
56604;BME280;42486;47.478;19.036;2023-04-06T10:09:51;100139.97;;;7.91;35.88
56604;BME280;42486;47.478;19.036;2023-04-06T10:12:56;100145.84;;;8.33;36.56
56604;BME280;42486;47.478;19.036;2023-04-06T10:15:59;100135.44;;;8.33;36.35
56604;BME280;42486;47.478;19.036;2023-04-06T10:19:13;100128.22;;;8.88;36.50
56604;BME280;42486;47.478;19.036;2023-04-06T10:22:24;100138.63;;;8.88;34.05
56604;BME280;42486;47.478;19.036;2023-04-06T10:25:32;100119.00;;;9.08;35.18
56604;BME280;42486;47.478;19.036;2023-04-06T10:28:36;100121.44;;;9.22;35.37
56604;BME280;42486;47.478;19.036;2023-04-06T10:31:41;100111.31;;;8.93;33.75
56604;BME280;42486;47.478;19.036;2023-04-06T10:34:46;100113.16;;;9.28;33.29
56604;BME280;42486;47.478;19.036;2023-04-06T10:37:51;100114.91;;;9.40;33.86
56604;BME280;42486;47.478;19.036;2023-04-06T10:40:55;100109.72;;;9.03;33.00
56604;BME280;42486;47.478;19.036;2023-04-06T10:44:05;100101.91;;;9.03;33.10
56604;BME280;42486;47.478;19.036;2023-04-06T10:47:15;100106.44;;;9.50;32.96
56604;BME280;42486;47.478;19.036;2023-04-06T10:50:23;100096.72;;;8.91;32.80
56604;BME280;42486;47.478;19.036;2023-04-06T10:53:27;100094.87;;;9.17;32.30
56604;BME280;42486;47.478;19.036;2023-04-06T10:56:30;100102.13;;;9.48;32.55
56604;BME280;42486;47.478;19.036;2023-04-06T10:59:43;100096.81;;;9.02;32.84
56604;BME280;42486;47.478;19.036;2023-04-06T11:02:48;100092.22;;;8.56;34.10
56604;BME280;42486;47.478;19.036;2023-04-06T11:05:52;100087.72;;;8.71;32.19
56604;BME280;42486;47.478;19.036;2023-04-06T11:08:58;100099.19;;;8.68;32.72
56604;BME280;42486;47.478;19.036;2023-04-06T11:12:02;100085.22;;;9.06;33.15
56604;BME280;42486;47.478;19.036;2023-04-06T11:15:05;100082.50;;;9.56;32.60
56604;BME280;42486;47.478;19.036;2023-04-06T11:18:08;100084.37;;;9.54;32.40
56604;BME280;42486;47.478;19.036;2023-04-06T11:21:13;100082.13;;;9.96;32.57
56604;BME280;42486;47.478;19.036;2023-04-06T11:24:18;100080.22;;;9.51;31.98
56604;BME280;42486;47.478;19.036;2023-04-06T11:27:28;100081.72;;;9.78;32.37
56604;BME280;42486;47.478;19.036;2023-04-06T11:30:35;100081.50;;;9.45;31.39
56604;BME280;42486;47.478;19.036;2023-04-06T11:33:38;100078.78;;;9.47;32.90
56604;BME280;42486;47.478;19.036;2023-04-06T11:36:41;100077.50;;;9.99;30.84
56604;BME280;42486;47.478;19.036;2023-04-06T11:39:49;100074.06;;;9.52;30.96
56604;BME280;42486;47.478;19.036;2023-04-06T11:42:56;100073.44;;;9.48;32.08
56604;BME280;42486;47.478;19.036;2023-04-06T11:45:59;100076.03;;;9.37;31.79
56604;BME280;42486;47.478;19.036;2023-04-06T11:49:04;100069.81;;;9.27;32.78
56604;BME280;42486;47.478;19.036;2023-04-06T11:52:18;100069.75;;;9.40;31.86
56604;BME280;42486;47.478;19.036;2023-04-06T11:55:22;100067.09;;;9.64;31.95
56604;BME280;42486;47.478;19.036;2023-04-06T11:58:26;100064.94;;;9.93;32.21
56604;BME280;42486;47.478;19.036;2023-04-06T12:01:30;100057.69;;;9.50;32.47
56604;BME280;42486;47.478;19.036;2023-04-06T12:04:39;100054.72;;;9.90;32.85
56604;BME280;42486;47.478;19.036;2023-04-06T12:07:43;100055.47;;;10.03;32.05
56604;BME280;42486;47.478;19.036;2023-04-06T12:10:46;100058.97;;;9.91;32.62
56604;BME280;42486;47.478;19.036;2023-04-06T12:13:48;100059.12;;;9.54;32.88
56604;BME280;42486;47.478;19.036;2023-04-06T12:16:53;100051.84;;;9.11;33.77
56604;BME280;42486;47.478;19.036;2023-04-06T12:20:00;100058.41;;;8.80;33.77
56604;BME280;42486;47.478;19.036;2023-04-06T12:23:18;100051.44;;;8.80;33.98
56604;BME280;42486;47.478;19.036;2023-04-06T12:26:24;100055.88;;;8.29;33.88
56604;BME280;42486;47.478;19.036;2023-04-06T12:29:29;100050.06;;;8.38;35.12
56604;BME280;42486;47.478;19.036;2023-04-06T12:32:33;100050.16;;;8.62;34.79
56604;BME280;42486;47.478;19.036;2023-04-06T12:35:47;100050.78;;;8.90;34.28
56604;BME280;42486;47.478;19.036;2023-04-06T12:38:49;100054.63;;;8.97;33.66
56604;BME280;42486;47.478;19.036;2023-04-06T12:41:56;100046.03;;;9.32;33.34
56604;BME280;42486;47.478;19.036;2023-04-06T12:45:00;100045.38;;;9.28;32.78
56604;BME280;42486;47.478;19.036;2023-04-06T12:48:05;100044.34;;;9.07;34.26
56604;BME280;42486;47.478;19.036;2023-04-06T12:51:10;100047.56;;;9.34;36.05
56604;BME280;42486;47.478;19.036;2023-04-06T12:54:14;100047.94;;;9.41;34.75
56604;BME280;42486;47.478;19.036;2023-04-06T12:57:19;100049.25;;;9.11;34.19
56604;BME280;42486;47.478;19.036;2023-04-06T13:00:23;100036.66;;;9.29;35.41
56604;BME280;42486;47.478;19.036;2023-04-06T13:03:27;100041.41;;;9.35;35.02
56604;BME280;42486;47.478;19.036;2023-04-06T13:06:31;100042.59;;;9.31;35.02
56604;BME280;42486;47.478;19.036;2023-04-06T13:09:38;100045.03;;;9.21;34.28
56604;BME280;42486;47.478;19.036;2023-04-06T13:12:42;100046.16;;;9.41;34.38
56604;BME280;42486;47.478;19.036;2023-04-06T13:15:45;100043.97;;;9.59;33.79
56604;BME280;42486;47.478;19.036;2023-04-06T13:18:51;100042.00;;;9.15;33.22
56604;BME280;42486;47.478;19.036;2023-04-06T13:22:02;100035.91;;;8.79;33.74
56604;BME280;42486;47.478;19.036;2023-04-06T13:25:06;100034.66;;;8.85;34.23
56604;BME280;42486;47.478;19.036;2023-04-06T13:28:09;100031.53;;;8.79;35.23
56604;BME280;42486;47.478;19.036;2023-04-06T13:31:13;100028.88;;;8.92;35.12
56604;BME280;42486;47.478;19.036;2023-04-06T13:34:18;100023.50;;;8.82;36.70
56604;BME280;42486;47.478;19.036;2023-04-06T13:37:21;100030.44;;;8.58;36.32
56604;BME280;42486;47.478;19.036;2023-04-06T13:40:26;100026.94;;;8.59;38.21
56604;BME280;42486;47.478;19.036;2023-04-06T13:43:36;100033.53;;;8.39;36.65
56604;BME280;42486;47.478;19.036;2023-04-06T13:46:43;100028.72;;;8.46;36.88
56604;BME280;42486;47.478;19.036;2023-04-06T13:49:46;100025.75;;;8.63;36.51
56604;BME280;42486;47.478;19.036;2023-04-06T13:52:49;100036.53;;;8.46;37.42
56604;BME280;42486;47.478;19.036;2023-04-06T13:55:53;100019.66;;;8.38;40.55
56604;BME280;42486;47.478;19.036;2023-04-06T13:58:57;100017.47;;;8.45;38.83
56604;BME280;42486;47.478;19.036;2023-04-06T14:02:02;100020.56;;;8.50;39.05
56604;BME280;42486;47.478;19.036;2023-04-06T14:05:06;100013.72;;;8.49;38.66
56604;BME280;42486;47.478;19.036;2023-04-06T14:08:10;100012.53;;;8.53;38.07
56604;BME280;42486;47.478;19.036;2023-04-06T14:11:13;100006.78;;;8.61;38.27
56604;BME280;42486;47.478;19.036;2023-04-06T14:14:17;100007.31;;;8.66;38.82
56604;BME280;42486;47.478;19.036;2023-04-06T14:17:21;100010.09;;;8.39;37.94
56604;BME280;42486;47.478;19.036;2023-04-06T14:20:27;100013.72;;;8.36;37.63
56604;BME280;42486;47.478;19.036;2023-04-06T14:23:32;100010.94;;;7.88;38.21
56604;BME280;42486;47.478;19.036;2023-04-06T14:26:36;100011.47;;;7.93;38.38
56604;BME280;42486;47.478;19.036;2023-04-06T14:29:39;100012.28;;;7.81;38.28
56604;BME280;42486;47.478;19.036;2023-04-06T14:32:42;100015.09;;;7.78;39.00
56604;BME280;42486;47.478;19.036;2023-04-06T14:35:46;100022.34;;;7.60;39.65
56604;BME280;42486;47.478;19.036;2023-04-06T14:38:51;100016.25;;;7.74;40.39
56604;BME280;42486;47.478;19.036;2023-04-06T14:41:55;100017.72;;;7.91;40.40
56604;BME280;42486;47.478;19.036;2023-04-06T14:44:59;100016.06;;;7.90;39.32
56604;BME280;42486;47.478;19.036;2023-04-06T14:48:02;100025.19;;;7.70;40.84
56604;BME280;42486;47.478;19.036;2023-04-06T14:51:07;100032.44;;;7.52;41.65
56604;BME280;42486;47.478;19.036;2023-04-06T14:54:10;100022.03;;;7.52;41.66
56604;BME280;42486;47.478;19.036;2023-04-06T14:57:14;100043.87;;;7.37;42.74
56604;BME280;42486;47.478;19.036;2023-04-06T15:00:17;100043.03;;;7.09;44.16
56604;BME280;42486;47.478;19.036;2023-04-06T15:03:20;100048.50;;;7.04;45.17
56604;BME280;42486;47.478;19.036;2023-04-06T15:06:23;100044.53;;;6.99;46.37
56604;BME280;42486;47.478;19.036;2023-04-06T15:09:28;100054.50;;;6.78;47.87
56604;BME280;42486;47.478;19.036;2023-04-06T15:12:31;100060.06;;;6.45;51.11
56604;BME280;42486;47.478;19.036;2023-04-06T15:15:36;100062.62;;;6.16;53.87
56604;BME280;42486;47.478;19.036;2023-04-06T15:18:40;100060.59;;;6.21;55.56
56604;BME280;42486;47.478;19.036;2023-04-06T15:21:45;100045.59;;;6.26;55.37
56604;BME280;42486;47.478;19.036;2023-04-06T15:24:49;100053.00;;;6.32;54.43
56604;BME280;42486;47.478;19.036;2023-04-06T15:27:53;100046.25;;;6.15;55.97
56604;BME280;42486;47.478;19.036;2023-04-06T15:30:56;100045.50;;;6.13;55.70
56604;BME280;42486;47.478;19.036;2023-04-06T15:34:00;100048.19;;;6.26;57.74
56604;BME280;42486;47.478;19.036;2023-04-06T15:37:05;100051.50;;;6.14;56.73
56604;BME280;42486;47.478;19.036;2023-04-06T15:40:11;100050.94;;;6.09;58.33
56604;BME280;42486;47.478;19.036;2023-04-06T15:43:16;100055.72;;;5.86;60.99
56604;BME280;42486;47.478;19.036;2023-04-06T15:46:19;100051.81;;;5.65;62.01
56604;BME280;42486;47.478;19.036;2023-04-06T15:49:25;100051.88;;;5.63;62.13
56604;BME280;42486;47.478;19.036;2023-04-06T15:52:28;100057.19;;;5.76;64.13
56604;BME280;42486;47.478;19.036;2023-04-06T15:55:32;100049.19;;;5.95;62.32
56604;BME280;42486;47.478;19.036;2023-04-06T15:58:36;100052.19;;;5.87;61.37
56604;BME280;42486;47.478;19.036;2023-04-06T16:01:39;100057.91;;;5.64;62.24
56604;BME280;42486;47.478;19.036;2023-04-06T16:04:45;100049.47;;;5.60;62.09
56604;BME280;42486;47.478;19.036;2023-04-06T16:07:52;100050.66;;;5.55;61.96